createdAt,value
2018-11-11T00:02:11.669Z,91.02
2018-11-11T00:04:41.749Z,90.67
2018-11-11T00:07:11.635Z,89.70
2018-11-11T00:09:41.550Z,93.85
2018-11-11T00:12:11.449Z,107.40
2018-11-11T00:14:41.468Z,106.90
2018-11-11T00:17:11.659Z,108.60
2018-11-11T00:19:41.561Z,111.45
2018-11-11T00:22:11.737Z,103.87
2018-11-11T00:24:41.660Z,108.05
2018-11-11T00:27:11.724Z,107.63
2018-11-11T00:29:41.740Z,116.62
2018-11-11T00:32:11.633Z,101.02
2018-11-11T00:34:41.805Z,101.07
2018-11-11T00:37:11.689Z,98.12
2018-11-11T00:39:41.635Z,109.92
2018-11-11T00:42:11.465Z,96.50
2018-11-11T00:44:41.405Z,99.20
2018-11-11T00:47:11.297Z,99.77
2018-11-11T00:49:41.390Z,95.80
2018-11-11T00:52:11.313Z,100.72
2018-11-11T00:54:41.202Z,98.47
2018-11-11T00:57:11.880Z,103.07
2018-11-11T00:59:41.770Z,90.22
2018-11-11T01:02:11.716Z,91.55
2018-11-11T01:04:41.608Z,91.78
2018-11-11T01:07:11.569Z,106.55
2018-11-11T01:09:41.466Z,106.92
2018-11-11T01:12:11.685Z,99.07
2018-11-11T01:14:41.744Z,105.58
2018-11-11T01:17:11.657Z,99.00
2018-11-11T01:19:41.656Z,101.25
2018-11-11T01:22:11.870Z,104.60
2018-11-11T01:24:41.781Z,94.85
2018-11-11T01:27:11.689Z,110.63
2018-11-11T01:29:41.621Z,99.83
2018-11-11T01:32:11.541Z,97.82
2018-11-11T01:34:41.689Z,98.37
2018-11-11T01:37:11.649Z,100.33
2018-11-11T01:39:41.697Z,98.25
2018-11-11T01:42:11.586Z,93.35
2018-11-11T01:44:41.514Z,101.78
2018-11-11T01:47:11.716Z,91.95
2018-11-11T01:49:41.673Z,92.85
2018-11-11T01:52:11.586Z,87.00
2018-11-11T01:54:41.549Z,92.45
2018-11-11T01:57:11.433Z,107.72
2018-11-11T01:59:41.390Z,93.62
2018-11-11T02:02:11.276Z,99.40
2018-11-11T02:04:41.184Z,88.92
2018-11-11T02:07:11.065Z,90.22
2018-11-11T02:09:41.019Z,93.47
2018-11-11T02:12:10.912Z,88.07
2018-11-11T02:14:40.813Z,87.62
2018-11-11T02:17:10.793Z,97.80
2018-11-11T02:19:40.708Z,96.55
2018-11-11T02:22:10.599Z,94.45
2018-11-11T02:24:40.504Z,94.13
2018-11-11T02:27:10.597Z,98.07
2018-11-11T02:29:40.513Z,89.17
2018-11-11T02:32:10.458Z,105.27
2018-11-11T02:34:40.369Z,111.22
2018-11-11T02:37:10.270Z,117.28
2018-11-11T02:39:40.236Z,106.27
2018-11-11T02:42:10.141Z,93.78
2018-11-11T02:44:40.054Z,96.70
2018-11-11T02:47:10.118Z,88.17
2018-11-11T02:49:40.025Z,87.55
2018-11-11T02:52:09.921Z,91.67
2018-11-11T02:54:39.884Z,99.00
2018-11-11T02:57:09.771Z,96.35
2018-11-11T02:59:39.648Z,89.67
2018-11-11T03:02:09.554Z,91.02
2018-11-11T03:04:39.752Z,104.12
2018-11-11T03:07:09.802Z,91.55
2018-11-11T03:09:39.692Z,99.60
2018-11-11T03:12:09.737Z,102.55
2018-11-11T03:14:39.637Z,91.02
2018-11-11T03:17:09.534Z,97.25
2018-11-11T03:19:39.429Z,97.12
2018-11-11T03:22:09.317Z,98.80
2018-11-11T03:24:39.452Z,87.42
2018-11-11T03:27:09.330Z,90.07
2018-11-11T03:29:39.239Z,101.18
2018-11-11T03:32:09.104Z,86.22
2018-11-11T03:34:39.529Z,88.55
2018-11-11T03:37:09.400Z,82.42
2018-11-11T03:39:39.297Z,84.22
2018-11-11T03:42:09.215Z,83.78
2018-11-11T03:44:39.082Z,84.45
2018-11-11T03:47:08.996Z,82.27
2018-11-11T03:49:38.936Z,88.87
2018-11-11T03:52:09.081Z,88.00
2018-11-11T03:54:38.961Z,86.55
2018-11-11T03:57:08.845Z,85.22
2018-11-11T03:59:38.797Z,86.75
2018-11-11T04:02:08.717Z,87.97
2018-11-11T04:04:38.596Z,87.12
2018-11-11T04:07:08.547Z,87.40
2018-11-11T04:09:39.429Z,81.35
2018-11-11T04:12:09.345Z,92.20
2018-11-11T04:14:39.253Z,79.37
2018-11-11T04:17:09.277Z,88.42
2018-11-11T04:19:39.171Z,84.03
2018-11-11T04:22:15.428Z,84.45
2018-11-11T04:24:45.767Z,87.55
2018-11-11T04:27:15.993Z,79.15
2018-11-11T04:29:45.869Z,93.78
2018-11-11T04:32:15.849Z,81.12
2018-11-11T04:34:45.767Z,82.75
2018-11-11T04:37:15.642Z,80.60
2018-11-11T04:39:45.517Z,85.75
2018-11-11T04:42:15.388Z,84.52
2018-11-11T04:44:45.272Z,90.00
2018-11-11T04:47:15.168Z,82.12
2018-11-11T04:49:45.053Z,81.75
2018-11-11T04:52:14.976Z,78.00
2018-11-11T04:54:44.860Z,78.78
2018-11-11T04:57:14.762Z,83.87
2018-11-11T04:59:44.901Z,85.50
2018-11-11T05:02:14.772Z,86.63
2018-11-11T05:04:44.769Z,88.82
2018-11-11T05:07:14.590Z,85.30
2018-11-11T05:09:44.495Z,82.72
2018-11-11T05:12:14.584Z,85.57
2018-11-11T05:14:44.579Z,82.62
2018-11-11T05:17:14.517Z,90.30
2018-11-11T05:19:44.410Z,77.08
2018-11-11T05:22:14.301Z,84.58
2018-11-11T05:24:44.180Z,84.85
2018-11-11T05:27:14.057Z,79.15
2018-11-11T05:29:43.969Z,81.40
2018-11-11T05:32:13.846Z,74.95
2018-11-11T05:34:43.737Z,81.02
2018-11-11T05:37:13.616Z,80.22
2018-11-11T05:39:43.526Z,87.15
2018-11-11T05:42:13.392Z,80.17
2018-11-11T05:44:43.276Z,72.25
2018-11-11T05:47:13.592Z,84.52
2018-11-11T05:49:43.498Z,81.63
2018-11-11T05:52:13.372Z,81.22
2018-11-11T05:54:43.271Z,83.27
2018-11-11T05:57:13.141Z,87.02
2018-11-11T05:59:43.018Z,93.45
2018-11-11T06:02:12.920Z,78.35
2018-11-11T06:04:42.788Z,77.10
2018-11-11T06:07:12.673Z,79.40
2018-11-11T06:09:42.580Z,74.47
2018-11-11T06:12:12.568Z,88.15
2018-11-11T06:14:42.613Z,85.55
2018-11-11T06:17:12.609Z,81.05
2018-11-11T06:19:42.521Z,80.40
2018-11-11T06:22:12.449Z,88.87
2018-11-11T06:24:42.510Z,81.70
2018-11-11T06:27:12.444Z,85.05
2018-11-11T06:29:42.348Z,80.72
2018-11-11T06:32:12.841Z,68.22
2018-11-11T06:34:42.720Z,72.08
2018-11-11T06:37:12.629Z,77.47
2018-11-11T06:39:42.593Z,75.30
2018-11-11T06:42:12.729Z,78.70
2018-11-11T06:44:42.721Z,71.75
2018-11-11T06:47:12.687Z,70.20
2018-11-11T06:49:42.902Z,71.35
2018-11-11T06:52:12.901Z,68.85
2018-11-11T06:54:42.967Z,68.47
2018-11-11T06:57:12.859Z,72.53
2018-11-11T06:59:43.317Z,69.87
2018-11-11T07:02:13.419Z,70.97
2018-11-11T07:04:43.324Z,74.80
2018-11-11T07:07:13.217Z,68.70
2018-11-11T07:09:43.099Z,75.05
2018-11-11T07:12:13.286Z,68.05
2018-11-11T07:14:43.242Z,74.72
2018-11-11T07:17:13.329Z,68.67
2018-11-11T07:19:43.210Z,68.60
2018-11-11T07:22:13.074Z,72.45
2018-11-11T07:24:43.000Z,69.00
2018-11-11T07:27:12.869Z,77.72
2018-11-11T07:29:42.822Z,69.85
2018-11-11T07:32:12.700Z,69.30
2018-11-11T07:34:42.785Z,68.60
2018-11-11T07:37:12.685Z,80.95
2018-11-11T07:39:42.571Z,68.80
2018-11-11T07:42:12.562Z,70.50
2018-11-11T07:44:42.405Z,74.40
2018-11-11T07:47:12.339Z,71.95
2018-11-11T07:49:42.245Z,69.00
2018-11-11T07:52:12.173Z,75.37
2018-11-11T07:54:42.092Z,67.22
2018-11-11T07:57:11.997Z,74.80
2018-11-11T07:59:41.937Z,73.10
2018-11-11T08:02:11.888Z,74.22
2018-11-11T08:04:41.725Z,68.95
2018-11-11T08:07:11.684Z,71.05
2018-11-11T08:09:41.580Z,68.78
2018-11-11T08:12:11.745Z,69.67
2018-11-11T08:14:41.672Z,69.45
2018-11-11T08:17:11.553Z,62.05
2018-11-11T08:19:41.465Z,66.55
2018-11-11T08:22:11.605Z,69.92
2018-11-11T08:24:41.560Z,74.35
2018-11-11T08:27:11.485Z,71.42
2018-11-11T08:29:41.544Z,65.20
2018-11-11T08:32:11.549Z,65.20
2018-11-11T08:34:41.477Z,65.25
2018-11-11T08:37:11.337Z,69.47
2018-11-11T08:39:41.266Z,64.42
2018-11-11T08:42:11.325Z,61.33
2018-11-11T08:44:41.249Z,63.42
2018-11-11T08:47:11.181Z,64.05
2018-11-11T08:49:41.064Z,73.85
2018-11-11T08:52:10.944Z,70.67
2018-11-11T08:54:40.831Z,64.05
2018-11-11T08:57:10.725Z,69.50
2018-11-11T08:59:40.685Z,64.82
2018-11-11T09:02:10.837Z,72.30
2018-11-11T09:04:40.745Z,58.60
2018-11-11T09:07:10.628Z,63.85
2018-11-11T09:09:40.547Z,63.90
2018-11-11T09:12:10.440Z,73.97
2018-11-11T09:14:40.330Z,63.20
2018-11-11T09:17:10.396Z,62.48
2018-11-11T09:19:40.796Z,60.15
2018-11-11T09:22:10.797Z,66.10
2018-11-11T09:24:40.720Z,67.72
2018-11-11T09:27:10.628Z,62.67
2018-11-11T09:29:40.568Z,63.90
2018-11-11T09:32:10.461Z,59.93
2018-11-11T09:34:40.430Z,59.83
2018-11-11T09:37:10.660Z,63.10
2018-11-11T09:39:40.589Z,63.55
2018-11-11T09:42:10.534Z,62.65
2018-11-11T09:44:40.428Z,59.40
2018-11-11T09:47:10.464Z,59.70
2018-11-11T09:49:40.381Z,65.97
2018-11-11T09:52:10.280Z,57.27
2018-11-11T09:54:40.211Z,65.72
2018-11-11T09:57:10.192Z,55.27
2018-11-11T09:59:40.126Z,58.07
2018-11-11T10:02:09.992Z,62.85
2018-11-11T10:04:45.130Z,61.13
2018-11-11T10:07:23.773Z,56.25
2018-11-11T10:10:15.183Z,61.77
2018-11-11T10:12:54.954Z,60.12
2018-11-11T10:15:28.660Z,62.55
2018-11-11T10:18:05.042Z,66.72
2018-11-11T10:20:40.692Z,66.57
2018-11-11T10:23:20.864Z,61.08
2018-11-11T10:25:56.980Z,58.03
2018-11-11T10:29:30.182Z,59.70
2018-11-11T10:32:18.632Z,59.08
2018-11-11T10:34:53.873Z,55.85
2018-11-11T10:37:29.263Z,62.70
2018-11-11T10:40:11.383Z,56.90
2018-11-11T10:42:47.800Z,58.27
2018-11-11T10:45:28.196Z,64.67
2018-11-11T10:48:01.461Z,64.00
2018-11-11T10:50:34.633Z,61.70
2018-11-11T10:53:04.586Z,59.17
2018-11-11T10:55:34.471Z,65.20
2018-11-11T10:58:04.393Z,59.73
2018-11-11T11:00:39.785Z,59.25
2018-11-11T11:03:15.182Z,58.80
2018-11-11T11:05:45.101Z,64.33
2018-11-11T11:08:14.996Z,58.50
2018-11-11T11:10:45.177Z,66.80
2018-11-11T11:13:15.158Z,60.78
2018-11-11T11:15:45.005Z,61.93
2018-11-11T11:18:14.999Z,62.77
2018-11-11T11:20:44.957Z,60.57
2018-11-11T11:23:14.913Z,65.37
2018-11-11T11:25:44.948Z,56.23
2018-11-11T11:28:14.877Z,58.73
2018-11-11T11:30:44.772Z,62.03
2018-11-11T11:33:14.702Z,59.10
2018-11-11T11:35:44.673Z,64.57
2018-11-11T11:38:14.563Z,64.80
2018-11-11T11:40:44.483Z,53.17
2018-11-11T11:43:14.379Z,60.40
2018-11-11T11:45:44.285Z,55.30
2018-11-11T11:48:14.457Z,53.23
2018-11-11T11:50:44.380Z,55.70
2018-11-11T11:53:14.264Z,55.63
2018-11-11T11:55:44.225Z,55.50
2018-11-11T11:58:25.378Z,62.90
2018-11-11T12:00:55.541Z,54.07
2018-11-11T12:03:25.537Z,60.23
2018-11-11T12:05:55.435Z,67.50
2018-11-11T12:08:25.448Z,65.13
2018-11-11T12:10:55.432Z,61.40
2018-11-11T12:13:25.356Z,61.00
2018-11-11T12:15:55.320Z,55.73
2018-11-11T12:18:25.646Z,61.70
2018-11-11T12:20:55.617Z,60.00
2018-11-11T12:23:25.592Z,64.63
2018-11-11T12:25:55.537Z,66.83
2018-11-11T12:28:25.589Z,69.83
2018-11-11T12:30:55.590Z,62.10
2018-11-11T12:33:25.479Z,71.07
2018-11-11T12:35:55.389Z,71.77
2018-11-11T12:38:25.304Z,64.75
2018-11-11T12:40:55.178Z,70.20
2018-11-11T12:43:25.120Z,65.73
2018-11-11T12:45:55.073Z,70.23
2018-11-11T12:48:25.001Z,66.83
2018-11-11T12:50:54.910Z,72.87
2018-11-11T12:53:24.855Z,73.43
2018-11-11T12:55:54.789Z,60.40
2018-11-11T12:58:24.740Z,71.40
2018-11-11T13:00:54.680Z,65.10
2018-11-11T13:03:25.408Z,65.30
2018-11-11T13:05:55.348Z,64.50
2018-11-11T13:08:25.298Z,64.90
2018-11-11T13:10:55.229Z,65.43
2018-11-11T13:13:25.148Z,65.13
2018-11-11T13:15:55.116Z,67.60
2018-11-11T13:18:25.160Z,73.93
2018-11-11T13:20:55.325Z,69.47
2018-11-11T13:23:25.310Z,57.03
2018-11-11T13:25:55.232Z,67.93
2018-11-11T13:28:25.181Z,57.40
2018-11-11T13:30:55.109Z,55.30
2018-11-11T13:33:25.081Z,61.70
2018-11-11T13:35:55.015Z,62.57
2018-11-11T13:38:25.198Z,59.20
2018-11-11T13:40:55.101Z,55.70
2018-11-11T13:43:25.017Z,55.37
2018-11-11T13:45:55.065Z,60.20
2018-11-11T13:48:25.052Z,55.00
2018-11-11T13:50:55.005Z,63.67
2018-11-11T13:53:24.995Z,58.77
2018-11-11T13:55:54.968Z,58.47
2018-11-11T13:58:25.125Z,57.43
2018-11-11T14:00:55.055Z,65.80
2018-11-11T14:03:25.100Z,61.03
2018-11-11T14:05:55.021Z,56.10
2018-11-11T14:08:25.094Z,54.27
2018-11-11T14:10:55.000Z,59.10
2018-11-11T14:13:24.853Z,56.00
2018-11-11T14:15:54.785Z,52.30
2018-11-11T14:18:24.798Z,53.67
2018-11-11T14:21:01.758Z,52.67
2018-11-11T14:23:31.696Z,54.57
2018-11-11T14:26:01.709Z,59.30
2018-11-11T14:28:31.634Z,54.30
2018-11-11T14:31:01.768Z,56.93
2018-11-11T14:33:31.812Z,58.83
2018-11-11T14:36:01.806Z,54.47
2018-11-11T14:38:31.760Z,56.83
2018-11-11T14:41:01.691Z,56.67
2018-11-11T14:43:31.625Z,54.27
2018-11-11T14:46:01.779Z,65.03
2018-11-11T14:48:31.690Z,56.57
2018-11-11T14:51:01.672Z,51.43
2018-11-11T14:53:31.595Z,64.23
2018-11-11T14:56:01.514Z,60.70
2018-11-11T14:58:31.519Z,56.77
2018-11-11T15:01:01.329Z,58.30
2018-11-11T15:03:31.212Z,59.27
2018-11-11T15:06:01.109Z,55.70
2018-11-11T15:08:31.052Z,57.63
2018-11-11T15:11:00.940Z,58.33
2018-11-11T15:13:30.841Z,57.40
2018-11-11T15:18:32.664Z,57.30
2018-11-11T15:21:02.720Z,91.22
2018-11-11T15:23:32.944Z,99.47
2018-11-11T15:26:02.925Z,67.70
2018-11-11T15:28:32.905Z,65.00
2018-11-11T15:31:03.021Z,58.33
2018-11-11T15:33:32.769Z,59.35
2018-11-11T15:36:02.681Z,52.70
2018-11-11T15:38:32.639Z,56.08
2018-11-11T15:41:02.637Z,57.45
2018-11-11T15:43:32.872Z,57.55
2018-11-11T15:46:02.784Z,63.83
2018-11-11T15:48:33.051Z,55.30
2018-11-11T15:51:02.929Z,52.27
2018-11-11T15:53:32.869Z,49.63
2018-11-11T15:56:02.833Z,48.30
2018-11-11T15:58:32.754Z,52.17
2018-11-11T16:01:02.670Z,50.58
2018-11-11T16:03:32.596Z,51.18
2018-11-11T16:06:02.521Z,44.88
2018-11-11T16:08:32.429Z,47.50
2018-11-11T16:11:02.357Z,47.17
2018-11-11T16:13:32.260Z,43.70
2018-11-11T16:16:02.166Z,40.55
2018-11-11T16:18:32.132Z,36.90
2018-11-11T16:21:02.044Z,35.68
2018-11-11T16:23:38.384Z,41.15
2018-11-11T16:26:08.172Z,40.92
2018-11-11T16:28:38.056Z,37.75
2018-11-11T16:31:08.051Z,46.60
2018-11-11T16:33:38.030Z,41.35
2018-11-11T16:36:08.147Z,42.67
2018-11-11T16:38:38.525Z,40.10
2018-11-11T16:41:08.834Z,46.68
2018-11-11T16:43:38.542Z,43.30
2018-11-11T16:46:08.522Z,36.05
2018-11-11T16:48:38.609Z,43.83
2018-11-11T16:51:08.625Z,38.17
2018-11-11T16:53:38.580Z,39.18
2018-11-11T16:56:08.536Z,38.63
2018-11-11T16:58:38.433Z,39.33
2018-11-11T17:01:08.389Z,41.00
2018-11-11T17:03:38.314Z,39.53
2018-11-11T17:06:08.248Z,41.65
2018-11-11T17:08:38.373Z,41.45
2018-11-11T17:11:08.322Z,45.12
2018-11-11T17:13:38.350Z,43.73
2018-11-11T17:16:08.278Z,47.15
2018-11-11T17:18:41.160Z,43.40
2018-11-11T17:21:11.437Z,42.40
2018-11-11T17:23:41.240Z,37.03
2018-11-11T17:26:11.181Z,50.30
2018-11-11T17:28:41.081Z,36.10
2018-11-11T17:31:11.009Z,45.08
2018-11-11T17:33:41.235Z,44.70
2018-11-11T17:36:11.418Z,40.12
2018-11-11T17:38:41.373Z,42.43
2018-11-11T17:41:11.392Z,47.25
2018-11-11T17:43:41.389Z,42.60
2018-11-11T17:46:11.279Z,44.20
2018-11-11T17:48:41.344Z,44.65
2018-11-11T17:51:11.288Z,40.50
2018-11-11T17:53:41.202Z,43.20
2018-11-11T17:56:11.178Z,41.50
2018-11-11T17:58:41.080Z,42.03
2018-11-11T18:01:10.984Z,37.28
2018-11-11T18:03:40.895Z,41.02
2018-11-11T18:06:10.784Z,43.63
2018-11-11T18:08:40.715Z,39.18
2018-11-11T18:11:10.612Z,34.67
2018-11-11T18:13:40.495Z,41.68
2018-11-11T18:16:10.388Z,35.73
2018-11-11T18:18:40.320Z,38.23
2018-11-11T18:21:10.400Z,32.08
2018-11-11T18:23:40.293Z,33.08
2018-11-11T18:26:10.208Z,33.05
2018-11-11T18:28:40.304Z,94.92
2018-11-11T18:31:10.206Z,64.32
2018-11-11T18:33:40.458Z,37.17
2018-11-11T18:36:10.527Z,29.75
2018-11-11T18:38:40.600Z,47.15
2018-11-11T18:41:10.517Z,28.83
2018-11-11T18:43:40.455Z,25.97
2018-11-11T18:46:10.399Z,27.70
2018-11-11T18:48:40.345Z,24.25
2018-11-11T18:51:10.274Z,20.45
2018-11-11T18:53:40.178Z,24.90
2018-11-11T18:56:10.093Z,22.80
2018-11-11T18:58:40.017Z,25.27
2018-11-11T19:01:09.922Z,20.82
2018-11-11T19:03:39.876Z,27.25
2018-11-11T19:06:09.853Z,22.67
2018-11-11T19:08:39.785Z,19.87
2018-11-11T19:11:10.097Z,24.80
2018-11-11T19:13:40.084Z,23.38
2018-11-11T19:16:10.028Z,22.55
2018-11-11T19:18:40.018Z,20.82
2018-11-11T19:21:09.897Z,28.77
2018-11-11T19:23:39.841Z,23.70
2018-11-11T19:26:09.760Z,21.87
2018-11-11T19:28:39.929Z,21.87
2018-11-11T19:31:09.821Z,25.95
2018-11-11T19:33:39.765Z,30.60
2018-11-11T19:36:09.637Z,26.40
2018-11-11T19:38:39.560Z,25.15
2018-11-11T19:41:09.497Z,25.10
2018-11-11T19:43:39.380Z,26.40
2018-11-11T19:46:09.283Z,21.87
2018-11-11T19:48:39.174Z,22.80
2018-11-11T19:51:09.149Z,26.37
2018-11-11T19:53:39.059Z,20.30
2018-11-11T19:56:09.009Z,27.45
2018-11-11T19:58:38.942Z,26.85
2018-11-11T20:01:08.904Z,24.23
2018-11-11T20:03:38.839Z,24.92
2018-11-11T20:06:08.797Z,27.02
2018-11-11T20:08:38.706Z,25.25
2018-11-11T20:11:08.635Z,23.47
2018-11-11T20:13:38.640Z,29.10
2018-11-11T20:16:08.812Z,29.07
2018-11-11T20:18:38.748Z,31.05
2018-11-11T20:21:08.652Z,32.53
2018-11-11T20:23:38.572Z,30.12
2018-11-11T20:26:08.480Z,24.67
2018-11-11T20:28:38.408Z,27.45
2018-11-11T20:31:08.309Z,25.82
2018-11-11T20:33:38.237Z,26.15
2018-11-11T20:36:08.155Z,27.30
2018-11-11T20:38:38.149Z,25.80
2018-11-11T20:41:08.117Z,26.55
2018-11-11T20:43:38.009Z,32.17
2018-11-11T20:46:08.064Z,26.62
2018-11-11T20:48:37.972Z,21.10
2018-11-11T20:51:07.888Z,31.75
2018-11-11T20:53:37.788Z,29.42
2018-11-11T20:56:07.760Z,28.45
2018-11-11T20:58:37.581Z,28.57
2018-11-11T21:01:07.760Z,28.45
2018-11-11T21:03:37.727Z,30.62
2018-11-11T21:06:07.589Z,26.17
2018-11-11T21:08:37.484Z,28.57
2018-11-11T21:11:07.417Z,29.12
2018-11-11T21:13:37.328Z,26.80
2018-11-11T21:16:07.232Z,34.45
2018-11-11T21:18:37.121Z,27.22
2018-11-11T21:21:07.637Z,31.68
2018-11-11T21:23:37.529Z,26.37
2018-11-11T21:26:07.421Z,33.55
2018-11-11T21:28:37.354Z,32.30
2018-11-11T21:31:14.153Z,29.60
2018-11-11T21:33:44.054Z,34.60
2018-11-11T21:36:13.974Z,26.80
2018-11-11T21:38:43.952Z,37.53
2018-11-11T21:41:13.916Z,30.55
2018-11-11T21:43:43.844Z,32.55
2018-11-11T21:46:13.716Z,30.80
2018-11-11T21:48:43.649Z,29.80
2018-11-11T21:51:13.571Z,31.70
2018-11-11T21:53:43.493Z,39.55
2018-11-11T21:56:13.413Z,46.50
2018-11-11T21:58:43.359Z,40.23
2018-11-11T22:01:13.252Z,27.95
2018-11-11T22:03:43.153Z,36.05
2018-11-11T22:06:13.069Z,31.00
2018-11-11T22:08:43.047Z,26.87
2018-11-11T22:11:12.925Z,37.00
2018-11-11T22:13:42.837Z,36.90
2018-11-11T22:16:12.764Z,29.82
2018-11-11T22:18:42.697Z,29.57
2018-11-11T22:21:12.892Z,28.60
2018-11-11T22:23:42.814Z,27.45
2018-11-11T22:26:12.728Z,29.92
2018-11-11T22:28:42.659Z,29.98
2018-11-11T22:31:12.737Z,28.67
2018-11-11T22:33:42.630Z,30.55
2018-11-11T22:36:12.525Z,28.70
2018-11-11T22:38:42.420Z,28.65
2018-11-11T22:41:12.369Z,27.52
2018-11-11T22:43:42.625Z,30.80
2018-11-11T22:46:12.557Z,25.60
2018-11-11T22:48:42.461Z,27.30
2018-11-11T22:51:12.376Z,29.85
2018-11-11T22:53:42.298Z,24.85
2018-11-11T22:56:12.190Z,29.30
2018-11-11T22:58:42.099Z,31.20
2018-11-11T23:01:17.618Z,25.70
2018-11-11T23:03:47.475Z,29.12
2018-11-11T23:06:17.505Z,25.85
2018-11-11T23:08:47.833Z,26.43
2018-11-11T23:11:18.069Z,32.17
2018-11-11T23:13:47.973Z,27.80
2018-11-11T23:16:18.114Z,28.67
2018-11-11T23:18:47.916Z,32.47
2018-11-11T23:21:18.257Z,26.87
2018-11-11T23:23:48.132Z,31.42
2018-11-11T23:26:18.009Z,30.52
2018-11-11T23:28:47.944Z,34.65
2018-11-11T23:31:17.855Z,28.42
2018-11-11T23:33:47.737Z,30.50
2018-11-11T23:36:17.678Z,30.12
2018-11-11T23:38:47.680Z,28.20
2018-11-11T23:41:17.819Z,30.65
2018-11-11T23:43:47.980Z,31.60
2018-11-11T23:46:17.914Z,44.40
2018-11-11T23:48:47.789Z,32.88
2018-11-11T23:51:17.660Z,36.20
2018-11-11T23:53:47.565Z,30.23
2018-11-11T23:56:17.733Z,32.58
2018-11-11T23:58:47.704Z,35.43
